Anaktuvuk Pass, Alaska
Current Conditions -  °F | °C
As of 12:36 PM on Wednesday 28 Jan 2015 (Local Time) from PAKP Reporting Station
Clear Clear  
Wind Chill: -29°   Ceiling: Unl
Heat Index: -13°   Visibility: 10mi
Dew Point: -24°   Wind: 7mph
Humidity: 59%   Direction: 20°NNE
Pressure: 30.23"   Gusts: NA
Location:  68.14°N, 151.74°W
Report Text: PAKP 282136Z AUTO 02006KT 10SM CLR M25/M31 A3023 RMK AO1
Loading
Personal Weather Stations






























Interactive Weather Map New forecast layout! Learn more

10-Day Weather Forecast

Advertisements
Track Severe Weather on mobile